Prachuap Khirikhan, Thailand
Current Conditions -  °F | °C
As of 7:00 AM on Thursday 29 Jan 2015 (Local Time) from VTBU Reporting Station
Moderate Fog Moderate Fog  
Wind Chill: 23°   Ceiling: Unl
Heat Index: 23°   Visibility: 0.5mi
Dew Point: 22°   Wind: 0mph
Humidity: 94%   Direction: NA
Pressure: 29.88"   Gusts: NA
Location:  11.83°N, 99.83°E
Report Text: VTBU 290000Z 00000KT 0800 FG NSC 23/22 Q1012 A2989 BECCMG TL0100 1500 BR
Loading
Personal Weather Stations






























Interactive Weather Map New forecast layout! Learn more

10-Day Weather Forecast

Advertisements
Track Severe Weather on mobile